< < Back
Terminal Aerodrome Forecast


Current Version              Previous Versions:   1  2  3  4  5  6  7  8  9  

Terminal Aerodrome Forecast

999
FTUS44 KBMX 251140
TAFANB
TAF
KANB 251140Z 2512/2612 23012KT P6SM VCSH OVC015
      TEMPO 2513/2515 5SM RA OVC009
     FM251800 23015KT P6SM VCTS OVC035CB
     FM252300 25014KT P6SM SCT150
     FM260900 23008KT P6SM BKN050=

Latest METAR

240
SAUS70 KWBC 260600 RRE
MTRANB
METAR KANB 260553Z AUTO 25006KT 7SM CLR 17/16 A2967 RMK AO2 SLP041
T01720161 10206 20172 402610156 50002


USA.gov is the U.S. government's official web portal to all federal, state and local government web resources and services.